Time;durP1;ratioP1;P1;durP2;ratioP2;P2;SDS_P1;SDS_P2;PMS_P1;PMS_P2;Temp;Humidity;BMP_temperature;BMP_pressure;BME280_temperature;BME280_humidity;BME280_pressure;Samples;Min_cycle;Max_cycle;Signal;HPM_P1;HPM_P2
2022/07/02 00:00:51;;;;;;;;;5.75;5.75;;;;;18.93;38.78;101684.72;5035133;28;45428;-62
2022/07/02 00:03:23;;;;;;;;;6.00;6.00;;;;;18.91;38.80;101683.88;5019396;28;45283;-61
2022/07/02 00:05:55;;;;;;;;;6.00;6.00;;;;;18.90;38.97;101686.56;5019966;28;45483;-61
2022/07/02 00:08:23;;;;;;;;;6.00;6.00;;;;;18.86;38.83;101676.94;5019824;28;45282;-61
2022/07/02 00:10:51;;;;;;;;;4.25;4.25;;;;;18.81;39.28;101677.09;5019791;28;45537;-60
2022/07/02 00:13:17;;;;;;;;;4.25;3.50;;;;;18.83;39.15;101675.25;5019874;28;45476;-61
2022/07/02 00:15:43;;;;;;;;;5.75;5.00;;;;;18.80;38.90;101678.91;5018414;28;45370;-61
2022/07/02 00:18:09;;;;;;;;;8.00;6.50;;;;;18.77;39.27;101686.97;5009552;28;45430;-61
2022/07/02 00:20:37;;;;;;;;;4.00;4.00;;;;;18.72;39.50;101675.63;5019678;28;45211;-62
2022/07/02 00:23:03;;;;;;;;;8.50;7.00;;;;;18.74;39.22;101679.09;5019808;28;45260;-62
2022/07/02 00:25:36;;;;;;;;;5.25;5.25;;;;;18.70;39.26;101680.09;5019414;28;45382;-62
2022/07/02 00:28:02;;;;;;;;;6.00;4.75;;;;;18.68;39.36;101685.50;5035076;28;45355;-62
2022/07/02 00:30:28;;;;;;;;;4.50;4.50;;;;;18.65;39.31;101687.38;5019717;28;45176;-62
2022/07/02 00:32:53;;;;;;;;;6.00;6.00;;;;;18.63;39.42;101690.09;5019575;28;45844;-63
2022/07/02 00:35:19;;;;;;;;;5.50;5.00;;;;;18.59;39.71;101679.59;5019471;28;45331;-62
2022/07/02 00:37:46;;;;;;;;;6.00;5.25;;;;;18.59;39.79;101684.91;5019723;28;45379;-62
2022/07/02 00:40:13;;;;;;;;;5.25;5.00;;;;;18.56;39.51;101677.06;5019320;28;45417;-63
2022/07/02 00:42:39;;;;;;;;;5.25;5.25;;;;;18.52;39.48;101669.16;5019451;28;45253;-63
2022/07/02 00:45:05;;;;;;;;;7.50;6.25;;;;;18.51;39.54;101672.75;5019254;28;45235;-63
2022/07/02 00:47:32;;;;;;;;;5.00;5.00;;;;;18.49;39.65;101679.06;5019346;28;45249;-63
2022/07/02 00:49:57;;;;;;;;;5.25;5.25;;;;;18.45;40.01;101672.94;5034740;28;45206;-63
2022/07/02 00:52:23;;;;;;;;;6.25;5.75;;;;;18.40;39.91;101679.31;5019568;28;45161;-63
2022/07/02 00:54:48;;;;;;;;;9.25;6.50;;;;;18.37;40.12;101679.44;5019049;28;46192;-62
2022/07/02 00:57:13;;;;;;;;;10.50;6.25;;;;;18.35;40.37;101679.47;5019571;28;45311;-62
2022/07/02 00:59:40;;;;;;;;;5.25;4.50;;;;;18.30;40.18;101665.44;5019425;28;45332;-61
2022/07/02 01:02:06;;;;;;;;;10.00;7.00;;;;;18.28;40.54;101677.94;5019131;28;45417;-60
2022/07/02 01:04:33;;;;;;;;;6.50;5.00;;;;;18.25;40.34;101672.69;5018726;28;46352;-60
2022/07/02 01:07:10;;;;;;;;;6.75;6.75;;;;;18.22;40.47;101672.81;5018877;28;45205;-61
2022/07/02 01:12:26;;;;;;;;;9.00;6.50;;;;;18.15;40.65;101667.69;5019172;28;45263;-62
2022/07/02 01:14:55;;;;;;;;;8.25;4.75;;;;;18.12;40.73;101670.41;5019462;28;46318;-62
2022/07/02 01:17:21;;;;;;;;;6.50;6.50;;;;;18.10;40.55;101671.38;5011394;28;45167;-61
2022/07/02 01:19:47;;;;;;;;;5.50;5.50;;;;;18.07;40.77;101674.16;5022594;28;45304;-61
2022/07/02 01:22:21;;;;;;;;;6.50;4.75;;;;;18.05;40.97;101670.66;5022282;28;45280;-61
2022/07/02 01:24:49;;;;;;;;;4.75;4.50;;;;;18.02;40.84;101679.59;5021810;28;46340;-62
2022/07/02 01:27:16;;;;;;;;;4.50;4.50;;;;;17.99;40.98;101682.38;5022187;28;45323;-62
2022/07/02 01:29:42;;;;;;;;;5.75;5.50;;;;;17.95;41.07;101683.38;5022585;28;45323;-62
2022/07/02 01:32:08;;;;;;;;;5.25;4.25;;;;;17.93;41.07;101679.88;5022165;28;45307;-62
2022/07/02 01:34:39;;;;;;;;;6.00;5.25;;;;;17.88;41.04;101682.66;5022367;28;45352;-62
2022/07/02 01:37:15;;;;;;;;;5.25;5.00;;;;;17.86;40.71;101685.38;5022086;28;45342;-62
2022/07/02 01:39:42;;;;;;;;;7.50;3.75;;;;;17.84;41.18;101679.22;5022037;28;45330;-62
2022/07/02 01:42:08;;;;;;;;;4.25;4.25;;;;;17.81;40.97;101683.75;5022125;28;45353;-62
2022/07/02 01:44:34;;;;;;;;;5.00;4.25;;;;;17.80;41.27;101685.53;5020843;28;48434;-62
2022/07/02 01:47:02;;;;;;;;;5.25;5.00;;;;;17.76;41.31;101678.59;5020620;28;45251;-62
2022/07/02 01:49:28;;;;;;;;;8.00;6.50;;;;;17.75;41.18;101676.84;5021685;28;45403;-62
2022/07/02 01:51:53;;;;;;;;;5.00;5.00;;;;;17.74;41.47;101687.53;5021827;28;45281;-62
2022/07/02 01:54:19;;;;;;;;;8.50;7.75;;;;;17.71;41.41;101689.34;5021776;28;45431;-62
2022/07/02 01:56:44;;;;;;;;;12.75;11.00;;;;;17.69;41.52;101687.66;5021822;28;45249;-62
2022/07/02 01:59:09;;;;;;;;;10.00;10.00;;;;;17.66;41.63;101677.09;5022082;28;45917;-62
2022/07/02 02:01:35;;;;;;;;;8.25;7.00;;;;;17.65;41.45;101680.69;5021487;28;45305;-62
2022/07/02 02:04:02;;;;;;;;;4.00;2.25;;;;;17.62;41.47;101676.34;5021715;28;46844;-63
2022/07/02 02:06:28;;;;;;;;;6.00;5.25;;;;;17.60;41.59;101686.13;5036989;28;45619;-63
2022/07/02 02:08:53;;;;;;;;;6.00;4.00;;;;;17.57;41.83;101678.22;5021643;28;45296;-63
2022/07/02 02:11:18;;;;;;;;;4.00;4.00;;;;;17.56;41.80;101679.16;5021596;28;45493;-63
2022/07/02 02:13:43;;;;;;;;;6.75;6.00;;;;;17.53;41.76;101677.47;5021842;28;45335;-63
2022/07/02 02:16:09;;;;;;;;;6.75;5.00;;;;;17.50;41.71;101672.22;5020352;28;45447;-63
2022/07/02 02:18:34;;;;;;;;;5.00;5.00;;;;;17.48;41.81;101668.75;5012895;28;45280;-62
2022/07/02 02:20:59;;;;;;;;;5.50;4.00;;;;;17.44;41.80;101671.53;5021302;28;45232;-62
2022/07/02 02:23:25;;;;;;;;;5.00;4.75;;;;;17.42;41.97;101673.34;5021653;28;45204;-63
2022/07/02 02:25:50;;;;;;;;;6.00;5.00;;;;;17.39;41.85;101666.34;5020917;28;45142;-63
2022/07/02 02:28:16;;;;;;;;;5.00;5.00;;;;;17.36;41.79;101663.78;5021625;28;45306;-63
2022/07/02 02:30:42;;;;;;;;;4.00;4.00;;;;;17.32;42.07;101668.31;5021161;28;45403;-63
2022/07/02 02:33:07;;;;;;;;;4.75;4.75;;;;;17.28;42.04;101661.34;5021530;28;46380;-66
2022/07/02 02:35:33;;;;;;;;;7.25;7.25;;;;;17.27;42.33;101664.03;5021215;28;45164;-65
2022/07/02 02:37:58;;;;;;;;;6.00;6.00;;;;;17.22;42.37;101665.03;5021765;28;45219;-66
2022/07/02 02:40:23;;;;;;;;;4.00;4.00;;;;;17.21;42.22;101670.38;5020606;28;47833;-63
2022/07/02 02:42:49;;;;;;;;;7.00;6.25;;;;;17.18;42.03;101666.03;5021421;28;45455;-63
2022/07/02 02:45:14;;;;;;;;;5.00;5.00;;;;;17.14;42.36;101660.84;5021291;28;45270;-63
2022/07/02 02:47:40;;;;;;;;;6.50;6.50;;;;;17.13;42.22;101659.97;5021188;28;45477;-63
2022/07/02 02:50:05;;;;;;;;;5.50;5.50;;;;;17.10;42.17;101662.69;5021104;28;45300;-62
2022/07/02 02:52:31;;;;;;;;;5.50;4.00;;;;;17.08;42.44;101661.88;5021023;28;45247;-62
2022/07/02 02:54:56;;;;;;;;;6.75;6.75;;;;;17.06;42.53;101663.72;5020741;28;45364;-63
2022/07/02 02:57:21;;;;;;;;;4.75;4.75;;;;;17.03;42.59;101666.41;5021230;28;45389;-62
2022/07/02 02:59:47;;;;;;;;;5.00;4.50;;;;;17.00;42.61;101661.22;5020697;28;45272;-62
2022/07/02 03:02:12;;;;;;;;;6.50;6.00;;;;;16.99;42.68;101667.44;5020394;28;46338;-62
2022/07/02 03:04:37;;;;;;;;;7.75;6.50;;;;;16.95;42.63;101669.28;5020639;28;47301;-62
2022/07/02 03:07:03;;;;;;;;;6.00;6.00;;;;;16.93;42.60;101665.81;5021094;28;45562;-62
2022/07/02 03:09:28;;;;;;;;;6.75;6.75;;;;;16.90;42.60;101661.44;5035863;28;45415;-62
2022/07/02 03:11:53;;;;;;;;;6.50;5.00;;;;;16.87;43.12;101663.28;5020725;28;45281;-62
2022/07/02 03:14:19;;;;;;;;;5.00;5.00;;;;;16.85;42.67;101662.44;5020726;28;45343;-62
2022/07/02 03:16:44;;;;;;;;;4.00;4.00;;;;;16.83;43.15;101664.25;5014814;28;45335;-62
2022/07/02 03:19:09;;;;;;;;;5.00;4.00;;;;;16.80;43.06;101667.88;5015733;28;45461;-62
2022/07/02 03:21:35;;;;;;;;;5.00;4.00;;;;;16.78;42.80;101668.81;5020460;28;45181;-62
2022/07/02 03:24:00;;;;;;;;;5.25;4.00;;;;;16.74;43.02;101670.66;5020286;28;45402;-63
2022/07/02 03:26:26;;;;;;;;;7.75;7.75;;;;;16.72;43.04;101677.81;5020814;28;45232;-62
2022/07/02 03:28:51;;;;;;;;;7.25;7.25;;;;;16.70;43.08;101679.63;5020526;28;45428;-62
2022/07/02 03:31:16;;;;;;;;;6.25;6.25;;;;;16.68;43.29;101671.72;5020335;28;46002;-63
2022/07/02 03:33:41;;;;;;;;;6.25;6.25;;;;;16.64;43.24;101663.84;5020489;28;45350;-62
2022/07/02 03:36:07;;;;;;;;;7.25;7.00;;;;;16.64;43.36;101663.84;5020655;28;45150;-62
2022/07/02 03:38:33;;;;;;;;;7.25;6.75;;;;;16.63;43.32;101662.09;5019542;28;45262;-62
2022/07/02 03:40:58;;;;;;;;;5.00;5.00;;;;;16.61;43.48;101669.25;5020018;28;45198;-62
2022/07/02 03:43:23;;;;;;;;;5.25;5.25;;;;;16.58;43.42;101659.59;5020283;28;45335;-62
2022/07/02 03:45:49;;;;;;;;;7.75;6.25;;;;;16.58;43.42;101664.91;5020451;28;45445;-62
2022/07/02 03:48:14;;;;;;;;;7.00;6.25;;;;;16.47;43.21;101651.03;5020326;28;45444;-62
2022/07/02 03:50:42;;;;;;;;;8.00;6.50;;;;;16.54;43.69;101671.16;5020081;28;46271;-62
2022/07/02 03:53:08;;;;;;;;;5.75;5.75;;;;;16.53;43.43;101670.31;5019693;28;45408;-62
2022/07/02 03:55:33;;;;;;;;;6.00;6.00;;;;;16.52;43.78;101673.00;5019977;28;45437;-62
2022/07/02 03:57:58;;;;;;;;;8.00;5.25;;;;;16.50;43.67;101673.06;5019588;28;45258;-62
2022/07/02 04:00:24;;;;;;;;;6.00;6.00;;;;;16.50;43.68;101674.81;5018604;28;47309;-61
2022/07/02 04:02:49;;;;;;;;;9.25;7.25;;;;;16.48;43.52;101669.56;5019711;28;45224;-61
2022/07/02 04:05:15;;;;;;;;;5.25;5.25;;;;;16.45;43.78;101663.44;5020127;28;45162;-62
2022/07/02 04:07:40;;;;;;;;;7.50;7.00;;;;;16.45;44.17;101663.44;5018931;28;45325;-62
2022/07/02 04:10:07;;;;;;;;;7.00;6.75;;;;;16.44;43.95;101669.66;5018513;28;45863;-61
2022/07/02 04:12:33;;;;;;;;;10.00;7.75;;;;;16.42;44.11;101664.38;5019870;28;45550;-61
2022/07/02 04:14:58;;;;;;;;;10.25;8.50;;;;;16.39;43.92;101661.81;5020090;28;45231;-61
2022/07/02 04:17:24;;;;;;;;;10.00;9.75;;;;;16.38;44.27;101662.72;5008834;28;45536;-61
2022/07/02 04:19:50;;;;;;;;;9.00;6.75;;;;;16.36;44.24;101668.06;5019682;28;47277;-60
2022/07/02 04:22:15;;;;;;;;;7.25;6.75;;;;;16.35;44.18;101673.41;5019801;28;45310;-60
2022/07/02 04:24:40;;;;;;;;;11.00;8.50;;;;;16.31;43.90;101667.28;5019932;28;45243;-60
2022/07/02 04:27:06;;;;;;;;;7.00;7.00;;;;;16.30;43.92;101675.28;5018401;28;45368;-61
2022/07/02 04:29:31;;;;;;;;;7.50;7.50;;;;;16.24;44.00;101669.22;5018058;28;45380;-60
2022/07/02 04:31:56;;;;;;;;;7.75;6.00;;;;;16.25;44.20;101673.63;5019674;28;45397;-60
2022/07/02 04:34:22;;;;;;;;;6.00;6.00;;;;;16.24;43.85;101673.66;5019838;28;45313;-60
2022/07/02 04:36:47;;;;;;;;;7.50;7.00;;;;;16.22;44.21;101667.50;5019786;28;45306;-60
2022/07/02 04:39:12;;;;;;;;;5.00;5.00;;;;;16.21;44.62;101671.94;5019367;28;45402;-60
2022/07/02 04:41:38;;;;;;;;;5.25;5.25;;;;;16.20;44.36;101670.19;5019433;28;45160;-60
2022/07/02 04:44:03;;;;;;;;;12.25;8.00;;;;;16.20;44.68;101675.50;5018566;28;45324;-60
2022/07/02 04:46:28;;;;;;;;;6.75;5.00;;;;;16.18;44.23;101671.16;5019427;28;45415;-59
2022/07/02 04:48:54;;;;;;;;;6.00;6.00;;;;;16.17;44.67;101672.06;5035164;28;46824;-60
2022/07/02 04:51:19;;;;;;;;;7.00;7.00;;;;;16.16;44.48;101667.66;5022879;28;45177;-60
2022/07/02 04:53:44;;;;;;;;;7.50;6.00;;;;;16.17;44.64;101678.22;5022708;28;45972;-60
2022/07/02 04:56:10;;;;;;;;;10.00;6.00;;;;;16.17;44.81;101672.91;5023008;28;45208;-59
2022/07/02 04:58:35;;;;;;;;;8.75;6.25;;;;;16.16;44.57;101673.84;5022646;28;46291;-59
2022/07/02 05:01:01;;;;;;;;;7.75;6.50;;;;;16.16;44.99;101673.84;5022754;28;45336;-60
2022/07/02 05:03:26;;;;;;;;;7.00;5.75;;;;;16.16;44.76;101687.09;5021502;28;45278;-60
2022/07/02 05:05:52;;;;;;;;;8.75;7.00;;;;;16.12;44.65;101671.28;5022715;28;45248;-59
2022/07/02 05:08:24;;;;;;;;;8.75;8.50;;;;;16.15;44.80;101677.41;5022570;28;45576;-60
2022/07/02 05:10:49;;;;;;;;;6.00;6.00;;;;;16.13;44.73;101671.25;5022331;28;45251;-59
2022/07/02 05:13:14;;;;;;;;;5.00;5.00;;;;;16.15;44.77;101679.16;5022558;28;45224;-60
2022/07/02 05:15:40;;;;;;;;;4.75;4.75;;;;;16.14;44.76;101680.06;5022523;28;45601;-60
2022/07/02 05:18:05;;;;;;;;;8.50;8.25;;;;;16.11;45.19;101669.53;5010509;28;47426;-60
2022/07/02 05:20:30;;;;;;;;;7.00;6.75;;;;;16.11;44.80;101675.69;5022482;28;45426;-60
2022/07/02 05:22:56;;;;;;;;;4.25;4.25;;;;;16.08;44.79;101668.69;5022651;28;45260;-60
2022/07/02 05:25:21;;;;;;;;;5.50;5.50;;;;;16.07;44.98;101679.34;5022200;28;45319;-60
2022/07/02 05:27:47;;;;;;;;;4.00;4.00;;;;;16.10;45.06;101681.94;5021127;28;46431;-60
2022/07/02 05:30:12;;;;;;;;;4.75;4.75;;;;;16.10;44.79;101687.25;5037748;28;45399;-60
2022/07/02 05:32:38;;;;;;;;;5.75;5.25;;;;;16.10;44.96;101684.59;5022379;28;45243;-60
2022/07/02 05:35:03;;;;;;;;;5.25;5.25;;;;;16.11;45.09;101685.44;5022502;28;45536;-60
2022/07/02 05:37:29;;;;;;;;;5.50;5.50;;;;;16.06;45.15;101672.28;5022146;28;45989;-60
2022/07/02 05:39:54;;;;;;;;;4.75;4.00;;;;;16.11;45.38;101681.00;5021953;28;45472;-60
2022/07/02 05:42:19;;;;;;;;;4.50;4.50;;;;;16.12;44.92;101685.41;5020892;28;45270;-60
2022/07/02 05:44:45;;;;;;;;;5.00;5.00;;;;;16.14;45.31;101680.94;5022177;28;45347;-60
2022/07/02 05:47:10;;;;;;;;;4.75;4.00;;;;;16.14;44.85;101673.00;5021797;28;46944;-60
2022/07/02 05:49:36;;;;;;;;;4.25;4.25;;;;;16.15;45.36;101671.19;5037448;28;45338;-60
2022/07/02 05:52:02;;;;;;;;;5.00;5.00;;;;;16.16;45.37;101681.81;5037505;28;45431;-60
2022/07/02 05:54:27;;;;;;;;;3.00;3.00;;;;;16.18;45.13;101682.63;5021785;28;45323;-60
2022/07/02 05:56:52;;;;;;;;;3.25;3.25;;;;;16.19;45.13;101676.41;5021754;28;45248;-60
2022/07/02 05:59:18;;;;;;;;;4.75;4.75;;;;;16.21;44.95;101682.56;5021941;28;45380;-60
2022/07/02 06:01:43;;;;;;;;;4.00;4.00;;;;;16.24;45.03;101678.97;5021084;28;45487;-60
2022/07/02 06:04:08;;;;;;;;;3.75;3.75;;;;;16.25;45.29;101678.94;5021198;28;45248;-60
2022/07/02 06:09:17;;;;;;;;;5.25;4.00;;;;;16.31;45.07;101677.88;5021565;28;45363;-60
2022/07/02 06:11:43;;;;;;;;;4.75;4.75;;;;;16.36;45.50;101675.16;5021846;28;45361;-60
2022/07/02 06:14:08;;;;;;;;;3.00;3.00;;;;;16.39;45.33;101683.91;5037037;28;45325;-60
2022/07/02 06:16:33;;;;;;;;;4.25;4.00;;;;;16.42;45.15;101682.97;5017142;28;45254;-60
2022/07/02 06:18:59;;;;;;;;;4.75;4.75;;;;;16.47;45.28;101682.84;5015275;28;45253;-60
2022/07/02 06:21:24;;;;;;;;;4.50;4.50;;;;;16.48;45.08;101680.16;5021693;28;45197;-60
2022/07/02 06:23:49;;;;;;;;;5.00;4.75;;;;;16.53;45.19;101678.25;5021544;28;45486;-60
2022/07/02 06:26:15;;;;;;;;;5.25;4.25;;;;;16.57;45.03;101685.22;5021308;28;49841;-60
2022/07/02 06:28:40;;;;;;;;;4.50;3.25;;;;;16.60;45.30;101684.28;5021491;28;45164;-60
2022/07/02 06:31:05;;;;;;;;;3.50;3.00;;;;;16.64;45.23;101677.13;5021388;28;45209;-60
2022/07/02 06:33:31;;;;;;;;;6.50;5.00;;;;;16.72;45.27;101677.81;5021374;28;45222;-60
2022/07/02 06:35:56;;;;;;;;;5.50;4.25;;;;;16.76;45.58;101675.97;5021362;28;45995;-60
2022/07/02 06:38:21;;;;;;;;;2.75;2.75;;;;;16.81;45.25;101677.56;5021497;28;45220;-60
2022/07/02 06:40:46;;;;;;;;;4.25;3.25;;;;;16.85;45.29;101678.38;5019319;28;45158;-60
2022/07/02 06:43:12;;;;;;;;;4.25;3.00;;;;;16.89;44.97;101678.25;5020076;28;45416;-60
2022/07/02 06:45:37;;;;;;;;;3.00;3.00;;;;;16.94;45.24;101677.31;5021227;28;45200;-60
2022/07/02 06:48:03;;;;;;;;;4.00;3.00;;;;;16.99;45.22;101670.09;5021208;28;45776;-60
2022/07/02 06:50:28;;;;;;;;;7.25;3.25;;;;;17.05;44.99;101672.56;5021067;28;45157;-60
2022/07/02 06:52:53;;;;;;;;;3.00;3.00;;;;;17.11;45.30;101679.53;5019995;28;45630;-60
2022/07/02 06:55:20;;;;;;;;;3.00;3.00;;;;;17.14;45.31;101672.31;5020622;28;45484;-60
2022/07/02 06:57:47;;;;;;;;;4.00;2.75;;;;;17.19;45.21;101670.44;5021088;28;45367;-60
2022/07/02 07:00:13;;;;;;;;;4.25;4.25;;;;;17.20;44.94;101666.84;5020803;28;45272;-60
2022/07/02 07:02:38;;;;;;;;;1.75;1.75;;;;;17.29;45.20;101671.03;5020618;28;45310;-60
2022/07/02 07:05:04;;;;;;;;;3.00;2.75;;;;;17.35;45.41;101667.34;5020758;28;46474;-60
2022/07/02 07:07:31;;;;;;;;;3.50;3.50;;;;;17.39;45.04;101669.00;5019787;28;46160;-60
2022/07/02 07:09:56;;;;;;;;;3.00;2.00;;;;;17.43;45.05;101668.00;5020629;28;45154;-60
2022/07/02 07:12:22;;;;;;;;;2.00;2.00;;;;;17.52;45.16;101675.72;5019878;28;45137;-60
2022/07/02 07:14:47;;;;;;;;;4.00;3.00;;;;;17.58;45.09;101661.38;5020392;28;45240;-61
2022/07/02 07:17:13;;;;;;;;;3.25;2.50;;;;;17.66;45.22;101666.47;5010859;28;45135;-61
2022/07/02 07:19:38;;;;;;;;;2.25;2.25;;;;;17.69;45.18;101664.59;5020172;28;45204;-60
2022/07/02 07:22:04;;;;;;;;;4.25;3.25;;;;;17.78;45.18;101666.09;5020526;28;45564;-61
2022/07/02 07:24:30;;;;;;;;;4.00;3.00;;;;;17.84;45.05;101659.75;5020138;28;46007;-61
2022/07/02 07:26:57;;;;;;;;;3.00;3.00;;;;;17.91;45.09;101655.09;5020619;28;45265;-61
2022/07/02 07:29:23;;;;;;;;;1.50;1.50;;;;;17.98;45.29;101656.69;5020423;28;45343;-61
2022/07/02 07:31:48;;;;;;;;;1.25;1.25;;;;;18.03;45.02;101652.97;5020467;28;45334;-61
2022/07/02 07:34:13;;;;;;;;;2.00;2.00;;;;;18.10;44.87;101652.78;5020243;28;46004;-61
2022/07/02 07:36:39;;;;;;;;;2.00;2.00;;;;;18.18;44.99;101650.75;5020695;28;45339;-61
2022/07/02 07:39:05;;;;;;;;;3.00;1.25;;;;;18.27;45.10;101646.94;5020255;28;45342;-61
2022/07/02 07:41:31;;;;;;;;;1.50;1.50;;;;;18.35;44.67;101653.75;5020297;28;45500;-61
2022/07/02 07:43:56;;;;;;;;;0.00;0.00;;;;;18.43;44.60;101647.31;5019933;28;46035;-60
2022/07/02 07:46:22;;;;;;;;;2.00;2.00;;;;;18.50;44.74;101638.19;5020196;28;45215;-60
2022/07/02 07:48:47;;;;;;;;;2.75;1.00;;;;;18.58;44.48;101640.59;5020304;28;45330;-60
2022/07/02 07:51:14;;;;;;;;;2.00;1.50;;;;;18.66;44.44;101643.88;5035165;28;45575;-60
2022/07/02 07:53:39;;;;;;;;;1.00;1.00;;;;;18.73;44.72;101642.75;5019643;28;46303;-60
2022/07/02 07:56:05;;;;;;;;;2.25;2.00;;;;;18.78;44.63;101630.16;5020153;28;45342;-60
2022/07/02 07:58:30;;;;;;;;;1.25;1.00;;;;;18.89;44.19;101637.75;5020090;28;45410;-60
2022/07/02 08:00:56;;;;;;;;;2.00;2.00;;;;;18.94;44.13;101630.53;5020025;28;45315;-60
2022/07/02 08:03:21;;;;;;;;;1.50;1.50;;;;;19.05;44.34;101640.78;5019759;28;46282;-60
2022/07/02 08:05:47;;;;;;;;;1.00;1.00;;;;;19.12;43.84;101642.31;5020114;28;45334;-60
2022/07/02 08:08:13;;;;;;;;;2.50;1.25;;;;;19.17;44.10;101628.81;5020095;28;45309;-60
2022/07/02 08:10:39;;;;;;;;;2.25;1.25;;;;;19.26;43.76;101632.97;5019860;28;45388;-60
2022/07/02 08:13:04;;;;;;;;;1.00;1.00;;;;;19.34;43.54;101625.53;5019767;28;46171;-60
2022/07/02 08:15:29;;;;;;;;;2.00;2.00;;;;;19.42;43.71;101625.25;5019972;28;45300;-61
2022/07/02 08:17:55;;;;;;;;;0.25;0.25;;;;;19.48;43.44;101628.56;5009319;28;45491;-61
2022/07/02 08:20:20;;;;;;;;;1.50;1.00;;;;;19.54;43.35;101626.59;5019883;28;45195;-60
2022/07/02 08:22:46;;;;;;;;;0.50;0.00;;;;;19.64;43.23;101627.97;5019681;28;45912;-60
2022/07/02 08:25:13;;;;;;;;;1.25;1.25;;;;;19.71;43.74;101633.94;5022105;28;45299;-60
2022/07/02 08:27:39;;;;;;;;;1.50;1.00;;;;;19.78;43.09;101632.78;5023389;28;45249;-60
2022/07/02 08:30:05;;;;;;;;;0.25;0.25;;;;;19.80;42.91;101629.13;5023361;28;45263;-61
2022/07/02 08:32:31;;;;;;;;;1.00;1.00;;;;;19.89;43.13;101629.72;5022984;28;46377;-61
2022/07/02 08:34:57;;;;;;;;;0.00;0.00;;;;;19.96;42.80;101629.44;5023211;28;45769;-61
2022/07/02 08:37:22;;;;;;;;;2.00;0.00;;;;;20.03;42.48;101629.19;5038740;28;45401;-60
2022/07/02 08:39:48;;;;;;;;;1.00;1.00;;;;;20.07;42.37;101628.13;5023034;28;45441;-60
2022/07/02 08:42:28;;;;;;;;;1.25;1.00;;;;;20.16;42.45;101627.75;5023062;28;45433;-60
2022/07/02 08:44:56;;;;;;;;;1.00;1.00;;;;;20.23;42.24;101626.56;5023253;28;45166;-60
2022/07/02 08:47:23;;;;;;;;;1.00;1.00;;;;;20.28;42.35;101623.72;5022995;28;45281;-60
2022/07/02 08:49:51;;;;;;;;;1.00;0.25;;;;;20.35;42.30;101627.88;5023023;28;45312;-61
2022/07/02 08:52:19;;;;;;;;;0.00;0.00;;;;;20.42;41.75;101626.66;5022945;28;45551;-61
2022/07/02 08:54:45;;;;;;;;;2.00;0.00;;;;;20.50;41.71;101628.16;5022592;28;45347;-61
2022/07/02 08:57:12;;;;;;;;;0.50;0.50;;;;;20.55;41.69;101619.03;5023109;28;45268;-61
2022/07/02 08:59:38;;;;;;;;;0.00;0.00;;;;;20.61;41.25;101621.41;5022852;28;45469;-61
2022/07/02 09:02:05;;;;;;;;;0.00;0.00;;;;;20.67;41.05;101617.63;5022540;28;46130;-61
2022/07/02 09:04:33;;;;;;;;;0.00;0.00;;;;;20.73;41.05;101624.56;5022559;28;45188;-60
2022/07/02 09:07:02;;;;;;;;;1.00;1.00;;;;;20.78;41.38;101626.09;5023003;28;45242;-60
2022/07/02 09:09:29;;;;;;;;;0.75;0.00;;;;;20.88;41.25;101623.00;5020991;28;45545;-61
2022/07/02 09:11:56;;;;;;;;;1.75;1.75;;;;;20.93;41.03;101613.00;5037931;28;47123;-60
2022/07/02 09:14:21;;;;;;;;;1.00;1.00;;;;;21.02;41.36;101614.38;5022553;28;45236;-60
2022/07/02 09:16:50;;;;;;;;;0.25;0.25;;;;;21.05;41.13;101601.75;5016477;28;45366;-60
2022/07/02 09:19:17;;;;;;;;;0.50;0.50;;;;;21.11;41.05;101617.50;5019196;28;45627;-60
2022/07/02 09:21:49;;;;;;;;;0.00;0.00;;;;;21.14;40.65;101607.63;5022317;28;46322;-60
2022/07/02 09:24:14;;;;;;;;;1.00;1.00;;;;;21.22;40.63;101609.03;5020923;28;45361;-60
2022/07/02 09:26:40;;;;;;;;;0.75;0.75;;;;;21.30;40.43;101619.38;5022559;28;45450;-60
2022/07/02 09:29:06;;;;;;;;;2.75;0.75;;;;;21.35;40.69;101608.47;5022479;28;45339;-59
2022/07/02 09:31:32;;;;;;;;;0.50;0.50;;;;;21.41;40.56;101609.03;5022105;28;45972;-60
2022/07/02 09:33:58;;;;;;;;;0.00;0.00;;;;;21.49;40.27;101602.47;5037462;28;45315;-60
2022/07/02 09:36:24;;;;;;;;;1.00;1.00;;;;;21.54;40.09;101597.78;5021518;28;45224;-59
2022/07/02 09:38:52;;;;;;;;;1.75;1.75;;;;;21.59;40.59;101596.66;5021930;28;45240;-60
2022/07/02 09:41:23;;;;;;;;;0.00;0.00;;;;;21.65;39.46;101600.00;5022112;28;46130;-60
2022/07/02 09:43:59;;;;;;;;;1.00;0.00;;;;;21.66;39.64;101585.66;5022214;28;45419;-61
2022/07/02 09:46:25;;;;;;;;;1.00;1.00;;;;;21.69;39.44;101591.72;5020969;28;45280;-61
2022/07/02 09:48:51;;;;;;;;;0.00;0.00;;;;;21.77;39.60;101595.84;5020675;28;45572;-61
2022/07/02 09:51:16;;;;;;;;;1.00;0.00;;;;;21.85;39.42;101588.34;5036544;28;45270;-62
2022/07/02 09:53:55;;;;;;;;;0.00;0.00;;;;;21.88;39.33;101591.72;5021764;28;45240;-62
2022/07/02 09:56:22;;;;;;;;;1.25;0.25;;;;;21.96;38.98;101590.47;5022170;28;45284;-62
2022/07/02 09:58:49;;;;;;;;;1.00;1.00;;;;;22.04;39.56;101586.50;5022078;28;45404;-63
2022/07/02 10:01:21;;;;;;;;;0.00;0.00;;;;;22.07;38.82;101588.16;5021345;28;45295;-62
2022/07/02 10:03:52;;;;;;;;;1.75;0.00;;;;;22.13;38.83;101587.84;5021792;28;45330;-62
2022/07/02 10:06:19;;;;;;;;;0.00;0.00;;;;;22.19;38.89;101590.22;5021810;28;45266;-63
2022/07/02 10:08:45;;;;;;;;;1.50;0.75;;;;;22.28;38.49;101590.72;5021931;28;45363;-62
2022/07/02 10:11:12;;;;;;;;;0.00;0.00;;;;;22.34;38.61;101575.19;5021617;28;45627;-62
2022/07/02 10:13:39;;;;;;;;;0.25;0.25;;;;;22.39;38.69;101572.34;5022007;28;45392;-64
2022/07/02 10:16:12;;;;;;;;;0.50;0.50;;;;;22.49;38.16;101567.34;5021156;28;45248;-63
2022/07/02 10:18:40;;;;;;;;;0.00;0.00;;;;;22.54;38.48;101563.50;5012751;28;45720;-62
2022/07/02 10:21:07;;;;;;;;;2.00;1.00;;;;;22.60;38.59;101572.16;5021197;28;46081;-62
2022/07/02 10:23:34;;;;;;;;;2.50;0.00;;;;;22.66;38.29;101570.03;5021409;28;45414;-62
2022/07/02 10:25:59;;;;;;;;;1.00;0.25;;;;;22.73;37.98;101554.50;5020192;28;45308;-63
2022/07/02 10:28:25;;;;;;;;;0.00;0.00;;;;;22.85;38.50;101551.16;5021489;28;45545;-62
2022/07/02 10:30:53;;;;;;;;;0.50;0.50;;;;;22.95;38.10;101554.22;5021109;28;46146;-62
2022/07/02 10:33:43;;;;;;;;;0.25;0.25;;;;;23.06;37.93;101567.06;5021411;28;45305;-62
2022/07/02 10:36:12;;;;;;;;;0.00;0.00;;;;;23.18;37.99;101557.50;5021659;28;45186;-62
2022/07/02 10:38:39;;;;;;;;;1.00;1.00;;;;;23.28;38.15;101550.72;5020936;28;45528;-62
2022/07/02 10:41:05;;;;;;;;;0.00;0.00;;;;;23.43;38.08;101540.06;5021309;28;46585;-62
2022/07/02 10:43:48;;;;;;;;;0.00;0.00;;;;;23.60;37.93;101537.28;5021031;28;45165;-62
2022/07/02 10:46:17;;;;;;;;;1.00;0.75;;;;;23.79;37.90;101549.66;5021568;28;45296;-61
2022/07/02 10:48:50;;;;;;;;;0.25;0.25;;;;;23.99;37.97;101535.97;5020837;28;45456;-61
2022/07/02 10:51:23;;;;;;;;;0.75;0.00;;;;;24.25;38.12;101530.91;5021089;28;45253;-61
2022/07/02 10:53:56;;;;;;;;;0.00;0.00;;;;;24.67;38.69;101542.72;5019654;28;45390;-62
2022/07/02 10:56:23;;;;;;;;;1.00;1.00;;;;;25.26;38.70;101543.59;5021131;28;45276;-62
2022/07/02 10:58:49;;;;;;;;;1.00;1.00;;;;;25.88;39.54;101536.94;5036447;28;45571;-62
2022/07/02 11:01:22;;;;;;;;;0.25;0.25;;;;;26.55;39.78;101533.31;5020558;28;46031;-60
2022/07/02 11:04:02;;;;;;;;;1.00;0.00;;;;;27.30;39.60;101545.19;5020818;28;45358;-61
2022/07/02 11:06:32;;;;;;;;;0.25;0.25;;;;;28.05;39.76;101536.94;5020947;28;45262;-62
2022/07/02 11:09:06;;;;;;;;;1.50;0.00;;;;;28.76;39.46;101540.59;5020580;28;45402;-63
2022/07/02 11:11:40;;;;;;;;;0.00;0.00;;;;;29.51;39.51;101534.53;5020671;28;46280;-63
2022/07/02 11:14:08;;;;;;;;;0.50;0.50;;;;;30.31;39.77;101537.84;5020968;28;45284;-64
2022/07/02 11:16:38;;;;;;;;;0.00;0.00;;;;;31.14;40.20;101538.88;5016756;28;45281;-62
2022/07/02 11:19:06;;;;;;;;;0.00;0.00;;;;;31.92;39.98;101536.34;5015085;28;45504;-63
2022/07/02 11:21:32;;;;;;;;;0.00;0.00;;;;;32.73;39.20;101541.38;5020709;28;45395;-63
2022/07/02 11:23:57;;;;;;;;;1.25;0.25;;;;;33.50;39.12;101543.94;5020210;28;45260;-63
2022/07/02 11:26:28;;;;;;;;;0.00;0.00;;;;;34.23;38.50;101536.63;5021064;28;45354;-62